Time;durP1;ratioP1;P1;durP2;ratioP2;P2;SDS_P1;SDS_P2;PMS_P1;PMS_P2;Temp;Humidity;BMP_temperature;BMP_pressure;BME280_temperature;BME280_humidity;BME280_pressure;Samples;Min_cycle;Max_cycle;Signal;HPM_P1;HPM_P2
2022/09/08 00:01:17;;;;;;;0.00;0.00;;;;;;;;;;5012442;28;20097;-78
2022/09/08 00:03:44;;;;;;;0.63;0.47;;;;;;;;;;5011461;28;20018;-78
2022/09/08 00:06:12;;;;;;;0.00;0.00;;;;;;;;;;5011416;28;20038;-78
2022/09/08 00:08:39;;;;;;;0.00;0.00;;;;;;;;;;4999077;28;20054;-78
2022/09/08 00:11:07;;;;;;;0.00;0.00;;;;;;;;;;5010397;28;20021;-78
2022/09/08 00:13:34;;;;;;;0.00;0.00;;;;;;;;;;5002170;28;20077;-78
2022/09/08 00:16:05;;;;;;;0.00;0.00;;;;;;;;;;5011427;28;20030;-78
2022/09/08 00:18:32;;;;;;;0.00;0.00;;;;;;;;;;5010951;28;20095;-78
2022/09/08 00:20:58;;;;;;;0.00;0.00;;;;;;;;;;5011796;28;20120;-78
2022/09/08 00:23:25;;;;;;;0.00;0.00;;;;;;;;;;5011518;28;20018;-78
2022/09/08 00:25:51;;;;;;;1.88;1.02;;;;;;;;;;5011181;28;20032;-78
2022/09/08 00:28:18;;;;;;;0.00;0.00;;;;;;;;;;5011190;28;20050;-78
2022/09/08 00:30:44;;;;;;;0.22;0.22;;;;;;;;;;5010432;28;20554;-78
2022/09/08 00:33:10;;;;;;;0.00;0.00;;;;;;;;;;5011298;28;20091;-78
2022/09/08 00:35:38;;;;;;;0.10;0.10;;;;;;;;;;5011472;28;20030;-78
2022/09/08 00:38:04;;;;;;;8.10;2.45;;;;;;;;;;5012053;28;20022;-78
2022/09/08 00:40:31;;;;;;;0.00;0.00;;;;;;;;;;5011971;28;20067;-78
2022/09/08 00:43:01;;;;;;;6.18;5.57;;;;;;;;;;5011103;28;20044;-78
2022/09/08 00:45:31;;;;;;;0.00;0.00;;;;;;;;;;4994270;28;20449;-78
2022/09/08 00:47:59;;;;;;;0.25;0.25;;;;;;;;;;5010538;28;20483;-79
2022/09/08 00:50:27;;;;;;;0.05;0.05;;;;;;;;;;5011548;28;20329;-78
2022/09/08 00:53:00;;;;;;;0.00;0.00;;;;;;;;;;5010771;28;20109;-78
2022/09/08 00:55:27;;;;;;;0.00;0.00;;;;;;;;;;5011391;28;20074;-78
2022/09/08 00:57:54;;;;;;;0.00;0.00;;;;;;;;;;5011053;28;20018;-78
2022/09/08 01:00:20;;;;;;;0.00;0.00;;;;;;;;;;5010634;28;20124;-78
2022/09/08 01:02:47;;;;;;;0.00;0.00;;;;;;;;;;5010207;28;20018;-78
2022/09/08 01:05:16;;;;;;;0.00;0.00;;;;;;;;;;5010285;28;20026;-78
2022/09/08 01:13:40;;;;;;;0.00;0.00;;;;;;;;;;5010903;28;20079;-77
2022/09/08 01:16:07;;;;;;;0.00;0.00;;;;;;;;;;5009382;28;20519;-78
2022/09/08 01:18:37;;;;;;;0.20;0.20;;;;;;;;;;5000159;28;20482;-81
2022/09/08 01:21:19;;;;;;;0.00;0.00;;;;;;;;;;5007062;28;20346;-79
2022/09/08 01:24:04;;;;;;;0.00;0.00;;;;;;;;;;5004955;28;20468;-79
2022/09/08 01:26:39;;;;;;;0.57;0.55;;;;;;;;;;5010828;28;20025;-80
2022/09/08 01:29:07;;;;;;;0.00;0.00;;;;;;;;;;5010833;28;20365;-80
2022/09/08 01:31:40;;;;;;;0.00;0.00;;;;;;;;;;5009597;28;20037;-80
2022/09/08 01:34:06;;;;;;;0.00;0.00;;;;;;;;;;5004849;28;20172;-79
2022/09/08 01:36:33;;;;;;;0.00;0.00;;;;;;;;;;5009941;28;20468;-80
2022/09/08 01:38:59;;;;;;;0.82;0.80;;;;;;;;;;5009848;28;20579;-80
2022/09/08 01:41:25;;;;;;;0.85;0.85;;;;;;;;;;5009897;28;20465;-80
2022/09/08 01:43:52;;;;;;;0.30;0.30;;;;;;;;;;5005614;28;20462;-80
2022/09/08 01:46:18;;;;;;;0.00;0.00;;;;;;;;;;5008026;28;20026;-80
2022/09/08 01:48:45;;;;;;;0.00;0.00;;;;;;;;;;5003355;28;20064;-79
2022/09/08 01:51:11;;;;;;;0.00;0.00;;;;;;;;;;5003381;28;20022;-80
2022/09/08 01:53:37;;;;;;;0.00;0.00;;;;;;;;;;5008733;28;20025;-81
2022/09/08 01:56:05;;;;;;;0.00;0.00;;;;;;;;;;4997094;28;20113;-81
2022/09/08 01:58:32;;;;;;;0.17;0.17;;;;;;;;;;5001240;28;20069;-80
2022/09/08 02:00:58;;;;;;;0.00;0.00;;;;;;;;;;4994881;28;20543;-81
2022/09/08 02:03:25;;;;;;;0.00;0.00;;;;;;;;;;5008531;28;20179;-80
2022/09/08 02:05:52;;;;;;;0.03;0.03;;;;;;;;;;5007534;28;20233;-79
2022/09/08 02:08:18;;;;;;;0.00;0.00;;;;;;;;;;5002414;28;20025;-79
2022/09/08 02:10:52;;;;;;;0.08;0.08;;;;;;;;;;5003287;28;20030;-81
2022/09/08 02:13:18;;;;;;;0.00;0.00;;;;;;;;;;5004203;28;20437;-80
2022/09/08 02:15:45;;;;;;;0.00;0.00;;;;;;;;;;5001209;28;20034;-79
2022/09/08 02:18:11;;;;;;;0.00;0.00;;;;;;;;;;4998545;28;20027;-80
2022/09/08 02:20:37;;;;;;;0.20;0.20;;;;;;;;;;5006530;28;20025;-80
2022/09/08 02:23:04;;;;;;;0.00;0.00;;;;;;;;;;5003760;28;20022;-80
2022/09/08 02:25:30;;;;;;;0.00;0.00;;;;;;;;;;5002250;28;20113;-80
2022/09/08 02:27:56;;;;;;;0.00;0.00;;;;;;;;;;5003169;28;20029;-79
2022/09/08 02:30:23;;;;;;;0.00;0.00;;;;;;;;;;5000603;28;20049;-80
2022/09/08 02:32:49;;;;;;;0.00;0.00;;;;;;;;;;4949402;28;1600484;-80
2022/09/08 02:35:17;;;;;;;0.00;0.00;;;;;;;;;;5007659;28;20079;-79
2022/09/08 02:37:43;;;;;;;0.00;0.00;;;;;;;;;;5003222;28;21441;-79
2022/09/08 02:40:09;;;;;;;0.63;0.47;;;;;;;;;;5005732;28;20027;-78
2022/09/08 02:42:36;;;;;;;0.00;0.00;;;;;;;;;;5012124;28;20022;-79
2022/09/08 02:45:03;;;;;;;0.00;0.00;;;;;;;;;;5002745;28;20049;-81
2022/09/08 02:47:32;;;;;;;0.00;0.00;;;;;;;;;;5003943;28;20090;-79
2022/09/08 02:49:58;;;;;;;0.00;0.00;;;;;;;;;;5001779;28;20381;-80
2022/09/08 02:52:25;;;;;;;0.00;0.00;;;;;;;;;;5001695;28;20032;-81
2022/09/08 02:54:51;;;;;;;0.13;0.13;;;;;;;;;;4999200;28;20030;-79
2022/09/08 02:57:20;;;;;;;0.25;0.03;;;;;;;;;;4995968;28;20082;-79
2022/09/08 02:59:46;;;;;;;0.00;0.00;;;;;;;;;;5070940;28;20109;-80
2022/09/08 03:02:13;;;;;;;0.00;0.00;;;;;;;;;;5001680;28;20052;-79
2022/09/08 03:04:40;;;;;;;0.00;0.00;;;;;;;;;;5000375;28;20109;-80
2022/09/08 03:07:07;;;;;;;0.00;0.00;;;;;;;;;;5003751;28;20060;-81
2022/09/08 03:09:36;;;;;;;0.00;0.00;;;;;;;;;;4999686;28;20018;-79
2022/09/08 03:12:05;;;;;;;0.00;0.00;;;;;;;;;;4994590;28;20079;-80
2022/09/08 03:14:32;;;;;;;0.00;0.00;;;;;;;;;;4998886;28;20051;-79
2022/09/08 03:16:59;;;;;;;0.00;0.00;;;;;;;;;;4996960;28;20030;-79
2022/09/08 03:19:25;;;;;;;0.00;0.00;;;;;;;;;;4998534;28;20026;-80
2022/09/08 03:21:52;;;;;;;1.17;1.17;;;;;;;;;;4978727;28;20027;-81
2022/09/08 03:24:18;;;;;;;0.00;0.00;;;;;;;;;;4981853;28;20052;-80
2022/09/08 03:26:44;;;;;;;0.90;0.85;;;;;;;;;;4993684;28;20127;-78
2022/09/08 03:29:11;;;;;;;0.00;0.00;;;;;;;;;;4977990;28;20037;-79
2022/09/08 03:31:37;;;;;;;0.00;0.00;;;;;;;;;;4987224;28;20076;-80
2022/09/08 03:34:04;;;;;;;0.00;0.00;;;;;;;;;;4985747;28;20069;-79
2022/09/08 03:36:32;;;;;;;0.00;0.00;;;;;;;;;;4981862;28;20469;-79
2022/09/08 03:38:59;;;;;;;0.40;0.40;;;;;;;;;;4990098;28;20028;-79
2022/09/08 03:41:25;;;;;;;0.00;0.00;;;;;;;;;;4981230;28;20026;-79
2022/09/08 03:43:52;;;;;;;0.00;0.00;;;;;;;;;;4985159;28;20363;-79
2022/09/08 03:46:18;;;;;;;0.00;0.00;;;;;;;;;;4989474;28;20076;-79
2022/09/08 03:48:45;;;;;;;0.32;0.32;;;;;;;;;;4982529;28;20374;-79
2022/09/08 03:51:16;;;;;;;0.75;0.43;;;;;;;;;;4982308;28;20026;-79
2022/09/08 03:53:44;;;;;;;0.00;0.00;;;;;;;;;;4995509;28;20035;-78
2022/09/08 03:56:11;;;;;;;0.00;0.00;;;;;;;;;;4986038;28;20426;-79
2022/09/08 03:58:38;;;;;;;0.15;0.10;;;;;;;;;;4991256;28;20058;-79
2022/09/08 04:01:15;;;;;;;0.00;0.00;;;;;;;;;;4992600;28;20027;-79
2022/09/08 04:03:42;;;;;;;0.32;0.32;;;;;;;;;;4977302;28;20033;-79
2022/09/08 04:06:09;;;;;;;0.17;0.17;;;;;;;;;;4995852;28;21053;-79
2022/09/08 04:08:35;;;;;;;1.40;1.30;;;;;;;;;;4990142;28;20448;-81
2022/09/08 04:11:02;;;;;;;0.82;0.82;;;;;;;;;;4993527;28;20038;-80
2022/09/08 04:13:28;;;;;;;1.75;1.13;;;;;;;;;;4976788;28;20040;-78
2022/09/08 04:15:55;;;;;;;0.35;0.35;;;;;;;;;;4978960;28;20030;-80
2022/09/08 04:18:21;;;;;;;0.10;0.10;;;;;;;;;;4980975;28;20041;-81
2022/09/08 04:20:56;;;;;;;10.30;4.38;;;;;;;;;;4986104;28;20297;-79
2022/09/08 04:23:22;;;;;;;1.45;0.50;;;;;;;;;;4985368;28;20038;-79
2022/09/08 04:25:59;;;;;;;0.95;0.65;;;;;;;;;;4998468;28;20030;-80
2022/09/08 04:28:26;;;;;;;0.00;0.00;;;;;;;;;;4994488;28;20043;-79
2022/09/08 04:30:53;;;;;;;2.83;0.98;;;;;;;;;;4985139;28;20042;-79
2022/09/08 04:33:19;;;;;;;0.10;0.10;;;;;;;;;;4988850;28;20137;-79
2022/09/08 04:35:45;;;;;;;0.57;0.57;;;;;;;;;;4986641;28;20035;-79
2022/09/08 04:38:12;;;;;;;0.00;0.00;;;;;;;;;;4987266;28;20414;-79
2022/09/08 04:40:38;;;;;;;0.90;0.70;;;;;;;;;;4990377;28;20023;-81
2022/09/08 04:43:04;;;;;;;0.93;0.88;;;;;;;;;;4982510;28;20650;-80
2022/09/08 04:45:31;;;;;;;0.38;0.38;;;;;;;;;;4987202;28;20032;-79
2022/09/08 04:47:57;;;;;;;0.10;0.10;;;;;;;;;;4998549;28;20027;-79
2022/09/08 04:50:24;;;;;;;0.00;0.00;;;;;;;;;;4983325;28;20036;-79
2022/09/08 04:52:50;;;;;;;0.17;0.17;;;;;;;;;;4982355;28;20030;-79
2022/09/08 04:55:16;;;;;;;0.00;0.00;;;;;;;;;;5043814;28;20027;-80
2022/09/08 04:57:43;;;;;;;0.03;0.03;;;;;;;;;;4999143;28;20395;-80
2022/09/08 05:00:12;;;;;;;0.30;0.22;;;;;;;;;;4981159;28;20121;-78
2022/09/08 05:02:38;;;;;;;14.95;2.35;;;;;;;;;;4973244;28;20031;-80
2022/09/08 05:05:05;;;;;;;0.10;0.10;;;;;;;;;;4982695;28;20038;-81
2022/09/08 05:07:31;;;;;;;0.10;0.10;;;;;;;;;;4983259;28;20045;-80
2022/09/08 05:09:58;;;;;;;2.65;1.92;;;;;;;;;;4982428;28;20086;-79
2022/09/08 05:12:24;;;;;;;0.30;0.13;;;;;;;;;;5041536;28;20043;-81
2022/09/08 05:14:51;;;;;;;1.75;0.65;;;;;;;;;;4979975;28;20080;-80
2022/09/08 05:17:17;;;;;;;0.35;0.35;;;;;;;;;;4986996;28;20026;-81
2022/09/08 05:19:43;;;;;;;0.00;0.00;;;;;;;;;;4996029;28;20026;-79
2022/09/08 05:22:10;;;;;;;1.58;0.85;;;;;;;;;;4981453;28;20381;-81
2022/09/08 05:24:36;;;;;;;0.52;0.52;;;;;;;;;;4999278;28;20091;-80
2022/09/08 05:27:02;;;;;;;0.00;0.00;;;;;;;;;;4985227;28;20065;-80
2022/09/08 05:29:29;;;;;;;0.77;0.65;;;;;;;;;;4985771;28;20033;-80
2022/09/08 05:31:55;;;;;;;0.10;0.10;;;;;;;;;;4984305;28;20603;-80
2022/09/08 05:34:21;;;;;;;1.88;0.10;;;;;;;;;;4991087;28;20366;-80
2022/09/08 05:36:48;;;;;;;0.05;0.05;;;;;;;;;;4991996;28;20030;-80
2022/09/08 05:39:14;;;;;;;3.10;2.90;;;;;;;;;;5006177;28;20065;-81
2022/09/08 05:41:41;;;;;;;0.10;0.10;;;;;;;;;;4993388;28;20027;-81
2022/09/08 05:44:10;;;;;;;1.20;1.05;;;;;;;;;;4996266;28;20480;-82
2022/09/08 05:46:37;;;;;;;0.00;0.00;;;;;;;;;;4995953;28;20107;-83
2022/09/08 05:49:03;;;;;;;1.27;0.70;;;;;;;;;;4987801;28;20099;-83
2022/09/08 05:51:32;;;;;;;0.13;0.13;;;;;;;;;;4982063;28;20030;-83
2022/09/08 05:53:59;;;;;;;13.38;1.17;;;;;;;;;;4973364;28;20117;-83
2022/09/08 05:56:25;;;;;;;8.68;5.57;;;;;;;;;;4975922;28;20029;-81
2022/09/08 05:58:53;;;;;;;0.43;0.40;;;;;;;;;;4980975;28;20780;-81
2022/09/08 06:01:19;;;;;;;2.38;0.77;;;;;;;;;;4981538;28;20582;-83
2022/09/08 06:03:46;;;;;;;0.20;0.20;;;;;;;;;;4983924;28;20068;-82
2022/09/08 06:06:15;;;;;;;0.25;0.25;;;;;;;;;;4995413;28;20520;-83
2022/09/08 06:08:41;;;;;;;4.75;1.98;;;;;;;;;;4984319;28;20133;-82
2022/09/08 06:11:08;;;;;;;0.10;0.10;;;;;;;;;;4982920;28;20059;-83
2022/09/08 06:13:35;;;;;;;0.38;0.38;;;;;;;;;;4979499;28;20061;-82
2022/09/08 06:16:03;;;;;;;0.00;0.00;;;;;;;;;;4981878;28;20071;-83
2022/09/08 06:18:32;;;;;;;1.42;0.55;;;;;;;;;;5052279;28;20030;-80
2022/09/08 06:20:59;;;;;;;0.00;0.00;;;;;;;;;;4987392;28;20034;-82
2022/09/08 06:23:25;;;;;;;0.00;0.00;;;;;;;;;;5006896;28;20029;-82
2022/09/08 06:25:51;;;;;;;0.43;0.08;;;;;;;;;;4991428;28;20260;-81
2022/09/08 06:28:38;;;;;;;0.38;0.38;;;;;;;;;;5008385;28;20036;-82
2022/09/08 06:31:07;;;;;;;0.00;0.00;;;;;;;;;;4992112;28;20117;-81
2022/09/08 06:33:37;;;;;;;0.10;0.10;;;;;;;;;;4996646;28;20061;-82
2022/09/08 06:36:20;;;;;;;0.70;0.52;;;;;;;;;;4992509;28;20062;-81
2022/09/08 06:38:48;;;;;;;0.00;0.00;;;;;;;;;;5066565;28;20035;-82
2022/09/08 06:41:17;;;;;;;2.50;1.08;;;;;;;;;;4985720;28;20018;-83
2022/09/08 06:43:46;;;;;;;0.30;0.30;;;;;;;;;;5001260;28;20504;-83
2022/09/08 06:46:21;;;;;;;0.10;0.10;;;;;;;;;;5015661;28;20169;-84
2022/09/08 06:48:47;;;;;;;1.88;0.47;;;;;;;;;;5047778;28;20130;-82
2022/09/08 06:51:20;;;;;;;0.38;0.38;;;;;;;;;;5004294;28;20031;-80
2022/09/08 06:53:59;;;;;;;0.15;0.10;;;;;;;;;;4995900;28;20038;-83
2022/09/08 06:56:32;;;;;;;0.00;0.00;;;;;;;;;;4998508;28;20346;-82
2022/09/08 06:59:02;;;;;;;0.17;0.17;;;;;;;;;;4985842;28;20026;-84
2022/09/08 07:01:53;;;;;;;0.32;0.32;;;;;;;;;;4986408;28;20042;-83
2022/09/08 07:04:35;;;;;;;0.35;0.30;;;;;;;;;;4974922;28;20389;-80
2022/09/08 07:07:04;;;;;;;0.85;0.85;;;;;;;;;;4992559;28;20014;-81
2022/09/08 07:09:30;;;;;;;0.00;0.00;;;;;;;;;;4981524;28;20023;-81
2022/09/08 07:12:11;;;;;;;1.77;0.75;;;;;;;;;;4978317;28;20026;-80
2022/09/08 07:14:57;;;;;;;0.45;0.45;;;;;;;;;;4982691;28;20038;-81
2022/09/08 07:17:30;;;;;;;0.40;0.40;;;;;;;;;;4999230;28;20025;-80
2022/09/08 07:19:57;;;;;;;0.10;0.10;;;;;;;;;;5011126;28;20496;-80
2022/09/08 07:22:35;;;;;;;0.28;0.28;;;;;;;;;;5000544;28;20079;-82
2022/09/08 07:25:22;;;;;;;0.00;0.00;;;;;;;;;;5012464;28;20392;-81
2022/09/08 07:28:08;;;;;;;2.58;2.38;;;;;;;;;;4997731;28;20254;-80
2022/09/08 07:30:36;;;;;;;0.03;0.03;;;;;;;;;;4996868;28;20129;-83
2022/09/08 07:33:14;;;;;;;2.22;0.98;;;;;;;;;;4984457;28;20054;-81
2022/09/08 07:35:41;;;;;;;0.32;0.32;;;;;;;;;;4988955;28;20038;-83
2022/09/08 07:38:13;;;;;;;0.00;0.00;;;;;;;;;;4991745;28;20105;-82
2022/09/08 07:40:50;;;;;;;0.00;0.00;;;;;;;;;;4996086;28;20101;-82
2022/09/08 07:43:17;;;;;;;2.83;1.45;;;;;;;;;;5001757;28;20113;-83
2022/09/08 07:45:48;;;;;;;0.08;0.00;;;;;;;;;;4995523;28;20050;-82
2022/09/08 07:48:20;;;;;;;8.23;0.98;;;;;;;;;;4990608;28;20030;-82
2022/09/08 07:50:54;;;;;;;0.75;0.22;;;;;;;;;;4994281;28;20457;-81
2022/09/08 07:53:39;;;;;;;0.08;0.08;;;;;;;;;;4986699;28;20038;-84
2022/09/08 07:56:13;;;;;;;0.00;0.00;;;;;;;;;;5068598;28;20038;-83
2022/09/08 07:58:43;;;;;;;0.00;0.00;;;;;;;;;;4989687;28;20018;-83
2022/09/08 08:01:20;;;;;;;0.98;0.98;;;;;;;;;;4986904;28;20478;-83
2022/09/08 08:03:56;;;;;;;1.13;0.32;;;;;;;;;;5058537;28;20265;-86
2022/09/08 08:06:25;;;;;;;0.35;0.35;;;;;;;;;;4987722;28;20036;-83
2022/09/08 08:09:10;;;;;;;0.17;0.05;;;;;;;;;;4989820;28;20034;-82
2022/09/08 08:11:42;;;;;;;15.70;1.27;;;;;;;;;;4987316;28;20034;-85
2022/09/08 08:14:16;;;;;;;1.80;1.77;;;;;;;;;;5047203;28;20113;-86
2022/09/08 08:16:42;;;;;;;0.00;0.00;;;;;;;;;;4998079;28;20137;-83
2022/09/08 08:19:09;;;;;;;1.45;0.88;;;;;;;;;;5048305;28;20037;-85
2022/09/08 08:21:39;;;;;;;0.05;0.03;;;;;;;;;;4996607;28;20027;-83
2022/09/08 08:24:09;;;;;;;2.95;0.52;;;;;;;;;;4988576;28;20464;-83
2022/09/08 08:26:39;;;;;;;0.10;0.10;;;;;;;;;;5008155;28;20068;-81
2022/09/08 08:29:09;;;;;;;0.15;0.15;;;;;;;;;;5008056;28;20023;-82
2022/09/08 08:31:54;;;;;;;0.90;0.73;;;;;;;;;;4988451;28;20057;-83
2022/09/08 08:34:41;;;;;;;1.17;1.15;;;;;;;;;;4988463;28;20419;-80
2022/09/08 08:37:17;;;;;;;0.00;0.00;;;;;;;;;;5002320;28;20034;-81
2022/09/08 08:39:45;;;;;;;0.22;0.22;;;;;;;;;;4997667;28;20034;-81
2022/09/08 08:42:14;;;;;;;5.38;0.65;;;;;;;;;;4998190;28;20024;-82
2022/09/08 08:44:54;;;;;;;0.00;0.00;;;;;;;;;;5011224;28;20022;-80
2022/09/08 08:47:38;;;;;;;0.00;0.00;;;;;;;;;;4994377;28;20128;-79
2022/09/08 08:50:23;;;;;;;20.00;18.55;;;;;;;;;;4982369;28;20561;-79
2022/09/08 08:52:50;;;;;;;0.05;0.03;;;;;;;;;;4981061;28;20041;-79
2022/09/08 08:55:36;;;;;;;0.00;0.00;;;;;;;;;;4987577;28;20034;-81
2022/09/08 08:58:20;;;;;;;0.10;0.10;;;;;;;;;;4982135;28;20028;-80
2022/09/08 09:00:56;;;;;;;0.00;0.00;;;;;;;;;;4985539;28;20019;-80
2022/09/08 09:03:55;;;;;;;0.90;0.28;;;;;;;;;;4992688;28;20164;-81
2022/09/08 09:06:31;;;;;;;0.40;0.40;;;;;;;;;;5015198;28;20042;-81
2022/09/08 09:09:00;;;;;;;2.20;1.08;;;;;;;;;;4987495;28;20023;-82
2022/09/08 09:11:26;;;;;;;1.00;0.93;;;;;;;;;;4994204;28;20030;-80
2022/09/08 09:13:56;;;;;;;0.00;0.00;;;;;;;;;;4991480;28;20019;-80
2022/09/08 09:16:45;;;;;;;0.00;0.00;;;;;;;;;;4987334;28;20038;-81
2022/09/08 09:19:21;;;;;;;0.00;0.00;;;;;;;;;;4992927;28;20106;-81
2022/09/08 09:21:53;;;;;;;0.75;0.40;;;;;;;;;;5001514;28;20022;-80
2022/09/08 09:24:19;;;;;;;0.00;0.00;;;;;;;;;;4986016;28;20023;-82
2022/09/08 09:26:48;;;;;;;0.00;0.00;;;;;;;;;;5001364;28;20050;-82
2022/09/08 09:29:19;;;;;;;0.00;0.00;;;;;;;;;;4987920;28;20045;-82
2022/09/08 09:32:04;;;;;;;0.00;0.00;;;;;;;;;;4986499;28;21857;-81
2022/09/08 09:34:49;;;;;;;0.10;0.10;;;;;;;;;;4995952;28;20121;-81
2022/09/08 09:37:28;;;;;;;0.00;0.00;;;;;;;;;;4996221;28;20026;-80
2022/09/08 09:40:05;;;;;;;0.20;0.20;;;;;;;;;;5007579;28;20371;-82
2022/09/08 09:42:43;;;;;;;0.50;0.40;;;;;;;;;;4990071;28;20022;-80
2022/09/08 09:45:16;;;;;;;0.00;0.00;;;;;;;;;;4987383;28;20027;-80
2022/09/08 09:47:51;;;;;;;0.08;0.08;;;;;;;;;;4998459;28;20717;-80
2022/09/08 09:50:30;;;;;;;4.57;2.03;;;;;;;;;;4993164;28;20035;-79
2022/09/08 09:53:09;;;;;;;0.00;0.00;;;;;;;;;;4994651;28;20075;-81
2022/09/08 09:55:55;;;;;;;0.00;0.00;;;;;;;;;;5001374;28;20061;-82
2022/09/08 09:58:25;;;;;;;0.00;0.00;;;;;;;;;;5015369;28;20050;-80
2022/09/08 10:00:51;;;;;;;32.33;2.42;;;;;;;;;;5003964;28;20065;-79
2022/09/08 10:03:17;;;;;;;0.00;0.00;;;;;;;;;;5011840;28;20025;-81
2022/09/08 10:05:44;;;;;;;0.88;0.32;;;;;;;;;;4988562;28;20055;-80
2022/09/08 10:08:29;;;;;;;0.00;0.00;;;;;;;;;;4987905;28;20099;-79
2022/09/08 10:11:09;;;;;;;6.55;6.20;;;;;;;;;;4993054;28;20031;-79
2022/09/08 10:13:54;;;;;;;0.20;0.20;;;;;;;;;;5004653;28;20037;-78
2022/09/08 10:16:20;;;;;;;0.00;0.00;;;;;;;;;;4994643;28;20480;-79
2022/09/08 10:18:49;;;;;;;2.45;0.35;;;;;;;;;;5004730;28;20105;-79
2022/09/08 10:21:34;;;;;;;0.57;0.57;;;;;;;;;;4996943;28;20022;-80
2022/09/08 10:24:19;;;;;;;0.00;0.00;;;;;;;;;;4985164;28;20384;-79
2022/09/08 10:27:00;;;;;;;2.92;2.83;;;;;;;;;;4989868;28;20057;-79
2022/09/08 10:29:36;;;;;;;0.00;0.00;;;;;;;;;;5001749;28;20030;-80
2022/09/08 10:32:20;;;;;;;0.00;0.00;;;;;;;;;;5005190;28;20050;-80
2022/09/08 10:35:16;;;;;;;0.00;0.00;;;;;;;;;;4996828;28;20044;-80
2022/09/08 10:38:08;;;;;;;0.10;0.03;;;;;;;;;;4998832;28;20038;-79
2022/09/08 10:40:34;;;;;;;0.00;0.00;;;;;;;;;;4991063;28;20279;-80
2022/09/08 10:43:16;;;;;;;0.00;0.00;;;;;;;;;;5000365;28;20016;-79
2022/09/08 10:46:01;;;;;;;0.57;0.22;;;;;;;;;;4999039;28;20058;-79
2022/09/08 10:48:45;;;;;;;0.00;0.00;;;;;;;;;;5008551;28;20362;-79
2022/09/08 10:51:22;;;;;;;0.47;0.45;;;;;;;;;;4996683;28;20041;-79
2022/09/08 10:53:59;;;;;;;0.00;0.00;;;;;;;;;;5004114;28;20038;-80
2022/09/08 10:56:29;;;;;;;0.00;0.00;;;;;;;;;;5053477;28;20439;-79
2022/09/08 10:59:01;;;;;;;0.00;0.00;;;;;;;;;;4993065;28;20018;-79
2022/09/08 11:01:30;;;;;;;0.52;0.52;;;;;;;;;;5003970;28;20018;-80
2022/09/08 11:04:17;;;;;;;0.00;0.00;;;;;;;;;;4998706;28;20812;-81
2022/09/08 11:07:02;;;;;;;0.00;0.00;;;;;;;;;;4995022;28;20045;-81
2022/09/08 11:09:40;;;;;;;0.28;0.17;;;;;;;;;;5007376;28;20034;-79
2022/09/08 11:12:12;;;;;;;0.00;0.00;;;;;;;;;;5002025;28;20030;-79
2022/09/08 11:14:51;;;;;;;0.43;0.43;;;;;;;;;;4986777;28;20337;-80
2022/09/08 11:17:24;;;;;;;0.00;0.00;;;;;;;;;;4991333;28;20030;-79
2022/09/08 11:20:02;;;;;;;6.80;0.70;;;;;;;;;;5004002;28;20053;-80
2022/09/08 11:22:47;;;;;;;1.42;1.35;;;;;;;;;;5009885;28;20113;-81
2022/09/08 11:25:21;;;;;;;0.00;0.00;;;;;;;;;;4999925;28;20031;-79
2022/09/08 11:27:50;;;;;;;0.00;0.00;;;;;;;;;;5005488;28;20107;-81
2022/09/08 11:30:32;;;;;;;2.65;0.28;;;;;;;;;;5052984;28;20100;-81
2022/09/08 11:33:17;;;;;;;0.00;0.00;;;;;;;;;;5009826;28;20088;-80
2022/09/08 11:35:44;;;;;;;2.10;0.30;;;;;;;;;;4999153;28;20695;-80
2022/09/08 11:38:30;;;;;;;0.20;0.20;;;;;;;;;;5014953;28;20444;-80
2022/09/08 11:41:09;;;;;;;0.00;0.00;;;;;;;;;;4987802;28;20116;-79
2022/09/08 11:43:54;;;;;;;0.08;0.00;;;;;;;;;;4989084;28;20071;-80
2022/09/08 11:46:26;;;;;;;0.00;0.00;;;;;;;;;;5002457;28;20053;-79
2022/09/08 11:49:11;;;;;;;0.00;0.00;;;;;;;;;;5003153;28;20038;-80
2022/09/08 11:51:56;;;;;;;0.00;0.00;;;;;;;;;;5005092;28;20031;-79
2022/09/08 11:54:41;;;;;;;0.00;0.00;;;;;;;;;;5014799;28;20041;-79
2022/09/08 11:57:27;;;;;;;0.10;0.10;;;;;;;;;;5012440;28;20035;-81
2022/09/08 12:00:08;;;;;;;0.10;0.10;;;;;;;;;;4985967;28;20027;-80
2022/09/08 12:02:53;;;;;;;0.00;0.00;;;;;;;;;;4986527;28;20381;-79
2022/09/08 12:05:38;;;;;;;0.00;0.00;;;;;;;;;;5015524;28;20400;-80
2022/09/08 12:08:23;;;;;;;0.00;0.00;;;;;;;;;;4995734;28;20030;-80
2022/09/08 12:10:56;;;;;;;0.52;0.52;;;;;;;;;;4991607;28;20034;-80
2022/09/08 12:13:23;;;;;;;0.00;0.00;;;;;;;;;;5001539;28;20022;-79
2022/09/08 12:15:56;;;;;;;0.00;0.00;;;;;;;;;;5005774;28;20038;-80
2022/09/08 12:18:29;;;;;;;0.10;0.10;;;;;;;;;;4994680;28;20445;-80
2022/09/08 12:21:05;;;;;;;0.00;0.00;;;;;;;;;;4989706;28;20028;-81
2022/09/08 12:23:44;;;;;;;0.00;0.00;;;;;;;;;;4986869;28;20133;-80
2022/09/08 12:26:22;;;;;;;0.00;0.00;;;;;;;;;;4984113;28;20494;-80
2022/09/08 12:29:07;;;;;;;0.00;0.00;;;;;;;;;;4983977;28;20042;-80
2022/09/08 12:31:33;;;;;;;0.00;0.00;;;;;;;;;;4993712;28;21598;-79
2022/09/08 12:34:21;;;;;;;0.00;0.00;;;;;;;;;;4989546;28;20034;-82
2022/09/08 12:36:53;;;;;;;0.00;0.00;;;;;;;;;;5000975;28;20040;-80
2022/09/08 12:39:32;;;;;;;0.00;0.00;;;;;;;;;;4996216;28;20018;-79
2022/09/08 12:41:58;;;;;;;0.00;0.00;;;;;;;;;;4989714;28;20028;-79
2022/09/08 12:44:40;;;;;;;0.00;0.00;;;;;;;;;;4996836;28;20027;-79
2022/09/08 12:47:07;;;;;;;0.00;0.00;;;;;;;;;;5002060;28;20537;-79
2022/09/08 12:49:43;;;;;;;0.00;0.00;;;;;;;;;;4984906;28;20030;-80
2022/09/08 12:52:15;;;;;;;0.00;0.00;;;;;;;;;;5027081;28;20034;-79
2022/09/08 12:54:47;;;;;;;0.00;0.00;;;;;;;;;;5018875;28;20060;-80
2022/09/08 12:57:29;;;;;;;0.65;0.65;;;;;;;;;;4990612;28;20027;-79
2022/09/08 12:59:56;;;;;;;0.00;0.00;;;;;;;;;;4984404;28;20034;-80
2022/09/08 13:02:44;;;;;;;0.00;0.00;;;;;;;;;;4986277;28;20023;-80
2022/09/08 13:05:22;;;;;;;0.00;0.00;;;;;;;;;;4986885;28;20523;-79
2022/09/08 13:07:58;;;;;;;0.00;0.00;;;;;;;;;;5015727;28;20088;-80
2022/09/08 13:10:30;;;;;;;10.27;9.65;;;;;;;;;;4994498;28;20078;-79
2022/09/08 13:13:06;;;;;;;0.00;0.00;;;;;;;;;;4993972;28;20665;-80
2022/09/08 13:15:40;;;;;;;0.00;0.00;;;;;;;;;;5015217;28;20069;-80
2022/09/08 13:18:09;;;;;;;4.20;3.83;;;;;;;;;;4985530;28;20030;-80
2022/09/08 13:20:40;;;;;;;0.00;0.00;;;;;;;;;;5004841;28;20492;-82
2022/09/08 13:23:30;;;;;;;0.00;0.00;;;;;;;;;;4993585;28;20037;-80
2022/09/08 13:26:14;;;;;;;0.00;0.00;;;;;;;;;;5001112;28;20539;-80
2022/09/08 13:28:46;;;;;;;0.00;0.00;;;;;;;;;;5062280;28;20038;-80
2022/09/08 13:31:35;;;;;;;0.40;0.22;;;;;;;;;;4978024;28;20037;-79
2022/09/08 13:34:21;;;;;;;0.00;0.00;;;;;;;;;;4983815;28;20481;-80
2022/09/08 13:37:03;;;;;;;0.98;0.98;;;;;;;;;;4983130;28;20125;-79
2022/09/08 13:39:38;;;;;;;0.15;0.15;;;;;;;;;;5035313;28;20028;-80
2022/09/08 13:42:05;;;;;;;0.70;0.70;;;;;;;;;;5002297;28;20026;-81
2022/09/08 13:44:31;;;;;;;1.98;1.48;;;;;;;;;;5018879;28;20134;-80
2022/09/08 13:47:13;;;;;;;0.00;0.00;;;;;;;;;;4995107;28;20033;-81
2022/09/08 13:49:51;;;;;;;0.00;0.00;;;;;;;;;;5006549;28;20133;-80
2022/09/08 13:52:33;;;;;;;0.90;0.90;;;;;;;;;;5051074;28;20076;-80
2022/09/08 13:55:07;;;;;;;0.00;0.00;;;;;;;;;;5024340;28;20607;-80
2022/09/08 13:57:52;;;;;;;0.00;0.00;;;;;;;;;;5054922;28;20111;-79
2022/09/08 14:00:21;;;;;;;0.00;0.00;;;;;;;;;;5018590;28;20076;-78
2022/09/08 14:03:06;;;;;;;0.00;0.00;;;;;;;;;;5034485;28;20027;-79
2022/09/08 14:05:41;;;;;;;0.00;0.00;;;;;;;;;;5030520;28;20026;-79
2022/09/08 14:08:10;;;;;;;0.00;0.00;;;;;;;;;;5029066;28;20069;-79
2022/09/08 14:10:43;;;;;;;0.20;0.20;;;;;;;;;;5034688;28;20026;-79
2022/09/08 14:13:09;;;;;;;1.67;1.65;;;;;;;;;;5046341;28;20028;-80
2022/09/08 14:15:48;;;;;;;2.30;2.15;;;;;;;;;;5039413;28;20031;-80
2022/09/08 14:18:34;;;;;;;0.30;0.30;;;;;;;;;;5019061;28;20023;-79
2022/09/08 14:21:03;;;;;;;0.82;0.82;;;;;;;;;;5015617;28;20052;-80
2022/09/08 14:23:50;;;;;;;0.10;0.10;;;;;;;;;;5000325;28;20137;-80
2022/09/08 14:26:22;;;;;;;0.00;0.00;;;;;;;;;;5013152;28;20080;-80
2022/09/08 14:28:51;;;;;;;1.27;1.27;;;;;;;;;;5094611;28;20020;-80
2022/09/08 14:31:22;;;;;;;0.20;0.20;;;;;;;;;;5003122;28;20026;-80
2022/09/08 14:33:52;;;;;;;0.65;0.65;;;;;;;;;;4981984;28;20370;-79
2022/09/08 14:36:24;;;;;;;0.00;0.00;;;;;;;;;;5013523;28;20117;-80
2022/09/08 14:38:57;;;;;;;0.00;0.00;;;;;;;;;;5002316;28;20076;-80
2022/09/08 14:41:23;;;;;;;0.00;0.00;;;;;;;;;;5073611;28;20417;-80
2022/09/08 14:44:00;;;;;;;0.00;0.00;;;;;;;;;;5061891;28;20566;-80
2022/09/08 14:46:45;;;;;;;0.00;0.00;;;;;;;;;;5071853;28;20028;-80
2022/09/08 14:49:30;;;;;;;8.23;7.78;;;;;;;;;;5029179;28;20091;-80
2022/09/08 14:52:06;;;;;;;0.05;0.05;;;;;;;;;;5010714;28;20364;-80
2022/09/08 14:54:51;;;;;;;0.00;0.00;;;;;;;;;;5001281;28;20042;-80
2022/09/08 14:57:20;;;;;;;0.30;0.30;;;;;;;;;;4991613;28;19948;-80
2022/09/08 14:59:52;;;;;;;0.00;0.00;;;;;;;;;;5074226;28;20029;-80
2022/09/08 15:02:26;;;;;;;0.00;0.00;;;;;;;;;;5000776;28;20121;-80
2022/09/08 15:04:53;;;;;;;4.38;3.63;;;;;;;;;;5025264;28;20076;-80
2022/09/08 15:07:22;;;;;;;0.15;0.15;;;;;;;;;;5048279;28;20497;-79
2022/09/08 15:09:59;;;;;;;0.95;0.95;;;;;;;;;;4994214;28;20030;-81
2022/09/08 15:12:26;;;;;;;0.00;0.00;;;;;;;;;;4990829;28;20022;-80
2022/09/08 15:14:56;;;;;;;1.00;1.00;;;;;;;;;;4990803;28;20041;-79
2022/09/08 15:17:25;;;;;;;1.00;1.00;;;;;;;;;;4991005;28;20095;-80
2022/09/08 15:20:10;;;;;;;0.00;0.00;;;;;;;;;;5001481;28;20026;-79